createdAt,value
2018-09-27T00:01:50.137Z,2.80
2018-09-27T00:04:19.229Z,2.37
2018-09-27T00:06:47.826Z,2.73
2018-09-27T00:09:16.323Z,2.20
2018-09-27T00:11:44.717Z,2.30
2018-09-27T00:14:13.371Z,2.20
2018-09-27T00:16:41.703Z,2.60
2018-09-27T00:19:10.019Z,1.87
2018-09-27T00:21:39.143Z,2.70
2018-09-27T00:24:07.469Z,2.40
2018-09-27T00:26:35.799Z,2.20
2018-09-27T00:29:04.214Z,2.37
2018-09-27T00:31:32.793Z,2.47
2018-09-27T00:34:01.110Z,2.23
2018-09-27T00:36:29.537Z,2.13
2018-09-27T00:38:58.137Z,2.20
2018-09-27T00:41:26.505Z,2.13
2018-09-27T00:43:54.897Z,2.37
2018-09-27T00:46:23.241Z,2.50
2018-09-27T00:48:51.585Z,2.80
2018-09-27T00:51:19.929Z,2.60
2018-09-27T00:53:48.303Z,2.60
2018-09-27T00:56:16.727Z,3.50
2018-09-27T00:58:45.182Z,2.70
2018-09-27T01:01:13.564Z,3.00
2018-09-27T01:03:41.985Z,2.70
2018-09-27T01:06:11.119Z,3.10
2018-09-27T01:08:39.439Z,3.20
2018-09-27T01:11:07.779Z,3.07
2018-09-27T01:13:36.111Z,3.10
2018-09-27T01:16:04.439Z,3.20
2018-09-27T01:18:32.777Z,3.93
2018-09-27T01:21:01.997Z,2.93
2018-09-27T01:23:30.374Z,3.57
2018-09-27T01:25:58.728Z,3.53
2018-09-27T01:28:27.831Z,2.83
2018-09-27T01:30:56.945Z,3.60
2018-09-27T01:33:25.342Z,3.23
2018-09-27T01:35:53.670Z,3.50
2018-09-27T01:38:22.779Z,3.50
2018-09-27T01:40:51.899Z,3.27
2018-09-27T01:43:20.257Z,3.60
2018-09-27T01:45:49.368Z,3.07
2018-09-27T01:48:17.758Z,3.10
2018-09-27T01:50:46.088Z,3.43
2018-09-27T01:53:14.422Z,3.60
2018-09-27T01:55:42.826Z,3.20
2018-09-27T01:58:11.158Z,2.63
2018-09-27T02:00:39.504Z,3.43
2018-09-27T02:03:07.839Z,3.17
2018-09-27T02:05:36.233Z,3.07
2018-09-27T02:08:04.633Z,2.70
2018-09-27T02:10:32.981Z,2.90
2018-09-27T02:13:01.305Z,2.97
2018-09-27T02:15:29.661Z,3.47
2018-09-27T02:17:58.093Z,3.00
2018-09-27T02:20:26.475Z,3.17
2018-09-27T02:22:54.871Z,3.07
2018-09-27T02:25:23.232Z,3.17
2018-09-27T02:27:51.604Z,3.10
2018-09-27T02:30:20.715Z,2.83
2018-09-27T02:32:49.063Z,3.17
2018-09-27T02:35:17.397Z,3.30
2018-09-27T02:37:45.714Z,2.90
2018-09-27T02:40:14.051Z,2.90
2018-09-27T02:42:42.517Z,2.80
2018-09-27T02:45:10.972Z,3.10
2018-09-27T02:47:39.311Z,3.47
2018-09-27T02:50:07.679Z,3.37
2018-09-27T02:52:36.027Z,2.73
2018-09-27T02:55:04.411Z,2.70
2018-09-27T02:57:32.877Z,2.37
2018-09-27T03:00:01.224Z,2.80
2018-09-27T03:02:29.647Z,3.27
2018-09-27T03:04:58.089Z,2.93
2018-09-27T03:07:26.401Z,3.10
2018-09-27T03:09:54.884Z,2.67
2018-09-27T03:12:23.397Z,2.90
2018-09-27T03:14:51.710Z,3.60
2018-09-27T03:17:20.123Z,3.63
2018-09-27T03:19:48.469Z,3.30
2018-09-27T03:22:16.805Z,3.47
2018-09-27T03:24:45.287Z,4.00
2018-09-27T03:27:13.599Z,3.97
2018-09-27T03:29:42.128Z,4.50
2018-09-27T03:32:10.446Z,4.03
2018-09-27T03:34:38.785Z,4.57
2018-09-27T03:37:07.104Z,4.50
2018-09-27T03:39:35.507Z,4.43
2018-09-27T03:42:03.801Z,4.83
2018-09-27T03:44:32.909Z,3.97
2018-09-27T03:47:01.235Z,4.20
2018-09-27T03:49:29.570Z,4.47
2018-09-27T03:51:58.317Z,4.43
2018-09-27T03:54:26.668Z,4.33
2018-09-27T03:56:56.057Z,4.43
2018-09-27T03:59:24.489Z,4.10
2018-09-27T04:01:52.825Z,4.03
2018-09-27T04:04:21.447Z,3.77
2018-09-27T04:06:49.843Z,3.70
2018-09-27T04:09:18.231Z,3.30
2018-09-27T04:11:46.560Z,3.50
2018-09-27T04:14:15.095Z,3.47
2018-09-27T04:16:43.539Z,3.60
2018-09-27T04:19:11.888Z,3.27
2018-09-27T04:21:40.234Z,3.87
2018-09-27T04:24:09.564Z,3.60
2018-09-27T04:26:37.831Z,3.67
2018-09-27T04:29:06.194Z,4.07
2018-09-27T04:31:34.537Z,3.77
2018-09-27T04:34:03.001Z,4.00
2018-09-27T04:36:31.531Z,4.00
2018-09-27T04:38:59.865Z,4.17
2018-09-27T04:41:28.347Z,3.93
2018-09-27T04:43:56.685Z,4.00
2018-09-27T04:46:25.021Z,3.97
2018-09-27T04:48:53.414Z,4.90
2018-09-27T04:51:22.523Z,4.20
2018-09-27T04:53:51.665Z,5.07
2018-09-27T04:56:20.171Z,4.07
2018-09-27T04:58:48.667Z,3.77
2018-09-27T05:01:17.027Z,4.20
2018-09-27T05:03:45.374Z,4.47
2018-09-27T05:06:13.755Z,4.10
2018-09-27T05:08:42.109Z,4.77
2018-09-27T05:11:11.241Z,3.90
2018-09-27T05:13:39.600Z,4.40
2018-09-27T05:16:08.674Z,4.20
2018-09-27T05:18:37.020Z,4.37
2018-09-27T05:21:05.375Z,4.43
2018-09-27T05:23:33.734Z,4.63
2018-09-27T05:26:02.175Z,5.27
2018-09-27T05:28:31.357Z,4.47
2018-09-27T05:30:59.801Z,5.17
2018-09-27T05:33:28.249Z,5.10
2018-09-27T05:35:56.601Z,4.63
2018-09-27T05:38:24.944Z,5.07
2018-09-27T05:40:53.311Z,5.10
2018-09-27T05:43:21.652Z,5.00
2018-09-27T05:45:50.324Z,4.90
2018-09-27T05:48:18.775Z,5.83
2018-09-27T05:50:47.096Z,5.37
2018-09-27T05:53:15.461Z,5.47
2018-09-27T05:55:43.870Z,5.17
2018-09-27T05:58:12.159Z,5.20
2018-09-27T06:00:40.643Z,5.13
2018-09-27T06:03:09.150Z,5.37
2018-09-27T06:05:37.781Z,5.40
2018-09-27T06:08:06.114Z,5.33
2018-09-27T06:10:34.490Z,5.53
2018-09-27T06:13:02.921Z,5.30
2018-09-27T06:15:31.296Z,5.17
2018-09-27T06:17:59.667Z,5.53
2018-09-27T06:20:28.018Z,5.13
2018-09-27T06:22:56.436Z,5.23
2018-09-27T06:25:25.587Z,5.27
2018-09-27T06:27:54.014Z,5.63
2018-09-27T06:30:22.418Z,5.40
2018-09-27T06:32:50.797Z,5.37
2018-09-27T06:35:19.203Z,5.63
2018-09-27T06:37:47.685Z,5.40
2018-09-27T06:40:16.029Z,5.30
2018-09-27T06:42:45.169Z,4.80
2018-09-27T06:45:13.473Z,5.03
2018-09-27T06:47:41.831Z,5.40
2018-09-27T06:50:10.223Z,5.53
2018-09-27T06:52:38.595Z,5.37
2018-09-27T06:55:07.099Z,5.90
2018-09-27T06:57:35.353Z,6.33
2018-09-27T07:00:03.715Z,5.63
2018-09-27T07:02:32.125Z,5.70
2018-09-27T07:05:00.493Z,6.27
2018-09-27T07:07:29.657Z,6.30
2018-09-27T07:09:58.269Z,6.83
2018-09-27T07:12:26.894Z,6.40
2018-09-27T07:14:55.043Z,5.43
2018-09-27T07:17:23.404Z,6.83
2018-09-27T07:19:51.829Z,6.07
2018-09-27T07:22:20.955Z,6.17
2018-09-27T07:24:49.271Z,6.27
2018-09-27T07:27:17.649Z,5.77
2018-09-27T07:29:45.989Z,6.93
2018-09-27T07:32:14.358Z,5.90
2018-09-27T07:34:43.056Z,5.60
2018-09-27T07:37:11.444Z,5.40
2018-09-27T07:39:39.799Z,5.77
2018-09-27T07:42:08.134Z,6.30
2018-09-27T07:44:36.629Z,5.37
2018-09-27T07:47:04.943Z,5.53
2018-09-27T07:49:33.364Z,5.70
2018-09-27T07:52:01.703Z,6.00
2018-09-27T07:54:30.152Z,6.17
2018-09-27T07:56:58.413Z,5.97
2018-09-27T07:59:26.757Z,6.30
2018-09-27T08:01:55.125Z,5.83
2018-09-27T08:04:23.461Z,6.03
2018-09-27T08:06:51.805Z,6.37
2018-09-27T08:09:20.148Z,5.30
2018-09-27T08:11:48.554Z,5.40
2018-09-27T08:14:16.907Z,6.47
2018-09-27T08:16:45.235Z,5.87
2018-09-27T08:19:13.583Z,5.63
2018-09-27T08:21:41.905Z,5.77
2018-09-27T08:24:10.299Z,6.37
2018-09-27T08:26:38.632Z,6.63
2018-09-27T08:29:07.416Z,5.90
2018-09-27T08:31:35.715Z,6.33
2018-09-27T08:34:04.085Z,5.63
2018-09-27T08:36:32.432Z,6.13
2018-09-27T08:39:00.912Z,6.00
2018-09-27T08:41:29.368Z,5.77
2018-09-27T08:43:57.734Z,6.23
2018-09-27T08:46:26.068Z,5.80
2018-09-27T08:48:54.414Z,6.67
2018-09-27T08:51:23.508Z,5.50
2018-09-27T08:53:51.861Z,6.13
2018-09-27T08:56:20.230Z,5.67
2018-09-27T08:58:48.549Z,5.60
2018-09-27T09:01:17.642Z,5.43
2018-09-27T09:03:46.127Z,5.57
2018-09-27T09:06:14.432Z,7.03
2018-09-27T09:08:42.807Z,5.97
2018-09-27T09:11:11.174Z,5.87
2018-09-27T09:13:39.601Z,5.60
2018-09-27T09:16:07.890Z,5.17
2018-09-27T09:18:36.228Z,6.00
2018-09-27T09:21:04.558Z,6.00
2018-09-27T09:23:32.918Z,5.37
2018-09-27T09:26:01.362Z,5.97
2018-09-27T09:28:29.786Z,5.63
2018-09-27T09:30:58.112Z,5.90
2018-09-27T09:33:26.551Z,5.80
2018-09-27T09:35:54.904Z,5.87
2018-09-27T09:38:23.221Z,5.07
2018-09-27T09:40:51.631Z,5.50
2018-09-27T09:43:19.973Z,5.13
2018-09-27T09:45:48.341Z,4.83
2018-09-27T09:48:16.700Z,5.18
2018-09-27T09:50:45.298Z,5.37
2018-09-27T09:53:13.644Z,4.93
2018-09-27T09:55:41.964Z,5.50
2018-09-27T09:58:10.337Z,4.80
2018-09-27T10:00:38.769Z,4.95
2018-09-27T10:03:07.163Z,4.87
2018-09-27T10:05:35.650Z,5.00
2018-09-27T10:08:04.009Z,4.87
2018-09-27T10:10:32.368Z,4.82
2018-09-27T10:13:01.455Z,4.93
2018-09-27T10:15:31.206Z,5.00
2018-09-27T10:17:59.543Z,4.45
2018-09-27T10:20:28.151Z,4.07
2018-09-27T10:22:57.349Z,4.18
2018-09-27T10:25:25.709Z,4.07
2018-09-27T10:27:54.833Z,3.80
2018-09-27T10:30:23.224Z,4.18
2018-09-27T10:32:51.598Z,3.75
2018-09-27T10:35:19.966Z,3.97
2018-09-27T10:37:48.450Z,3.92
2018-09-27T10:40:17.072Z,4.62
2018-09-27T10:42:45.384Z,3.30
2018-09-27T10:45:13.736Z,3.87
2018-09-27T10:47:42.066Z,3.45
2018-09-27T10:50:10.427Z,5.10
2018-09-27T10:52:38.823Z,3.92
2018-09-27T10:55:07.161Z,3.65
2018-09-27T10:57:36.610Z,3.10
2018-09-27T11:00:05.025Z,4.00
2018-09-27T11:02:33.383Z,3.87
2018-09-27T11:05:01.734Z,3.87
2018-09-27T11:07:30.162Z,3.75
2018-09-27T11:09:59.122Z,3.17
2018-09-27T11:12:27.542Z,4.25
2018-09-27T11:14:55.977Z,3.62
2018-09-27T11:17:24.619Z,4.18
2018-09-27T11:19:53.143Z,3.50
2018-09-27T11:22:22.855Z,3.58
2018-09-27T11:24:51.204Z,4.05
2018-09-27T11:27:19.566Z,3.20
2018-09-27T11:32:45.288Z,3.55
2018-09-27T11:35:13.635Z,3.65
2018-09-27T11:37:42.016Z,3.12
2018-09-27T11:40:10.384Z,3.35
2018-09-27T11:42:39.489Z,3.15
2018-09-27T11:45:08.581Z,3.45
2018-09-27T11:47:36.915Z,3.45
2018-09-27T11:50:05.638Z,3.50
2018-09-27T11:52:33.950Z,3.10
2018-09-27T11:55:02.712Z,2.70
2018-09-27T11:57:30.994Z,3.20
2018-09-27T11:59:59.360Z,3.08
2018-09-27T12:02:27.703Z,3.28
2018-09-27T12:04:56.058Z,2.80
2018-09-27T12:07:24.452Z,2.53
2018-09-27T12:09:52.795Z,2.60
2018-09-27T12:12:21.188Z,2.50
2018-09-27T12:14:49.693Z,2.87
2018-09-27T12:17:18.328Z,2.83
2018-09-27T12:19:46.847Z,2.22
2018-09-27T12:22:15.183Z,2.53
2018-09-27T12:24:44.314Z,2.60
2018-09-27T12:27:12.772Z,2.50
2018-09-27T12:29:41.198Z,2.55
2018-09-27T12:32:09.640Z,2.20
2018-09-27T12:34:38.102Z,2.65
2018-09-27T12:37:06.598Z,2.45
2018-09-27T12:39:34.962Z,2.35
2018-09-27T12:42:03.503Z,2.70
2018-09-27T12:44:31.623Z,2.10
2018-09-27T12:47:00.820Z,2.40
2018-09-27T12:49:29.070Z,2.60
2018-09-27T12:51:57.705Z,2.65
2018-09-27T12:54:25.982Z,2.60
2018-09-27T12:56:54.572Z,2.30
2018-09-27T12:59:22.895Z,2.42
2018-09-27T13:01:51.421Z,2.53
2018-09-27T13:04:20.258Z,2.67
2018-09-27T13:06:48.737Z,2.42
2018-09-27T13:09:17.257Z,1.90
2018-09-27T13:11:45.555Z,2.20
2018-09-27T13:14:14.105Z,2.70
2018-09-27T13:16:42.725Z,2.35
2018-09-27T13:19:11.223Z,2.50
2018-09-27T13:21:39.564Z,2.25
2018-09-27T13:24:08.136Z,1.70
2018-09-27T13:26:36.629Z,1.90
2018-09-27T13:29:04.927Z,1.90
2018-09-27T13:31:33.305Z,2.00
2018-09-27T13:34:01.749Z,1.98
2018-09-27T13:36:30.091Z,1.40
2018-09-27T13:38:58.556Z,1.62
2018-09-27T13:41:26.827Z,1.55
2018-09-27T13:43:55.156Z,1.50
2018-09-27T13:46:23.618Z,1.75
2018-09-27T13:48:51.939Z,1.33
2018-09-27T13:51:20.355Z,1.77
2018-09-27T13:53:48.682Z,1.48
2018-09-27T13:56:17.029Z,1.55
2018-09-27T13:58:45.373Z,1.33
2018-09-27T14:01:13.778Z,1.45
2018-09-27T14:03:42.157Z,1.30
2018-09-27T14:06:10.548Z,1.50
2018-09-27T14:08:38.902Z,1.80
2018-09-27T14:11:07.344Z,1.40
2018-09-27T14:13:35.696Z,1.80
2018-09-27T14:16:04.044Z,1.70
2018-09-27T14:18:32.621Z,1.70
2018-09-27T14:21:00.946Z,1.60
2018-09-27T14:23:29.344Z,1.48
2018-09-27T14:25:57.669Z,1.65
2018-09-27T14:28:26.024Z,1.85
2018-09-27T14:30:55.126Z,1.70
2018-09-27T14:33:24.305Z,2.00
2018-09-27T14:35:53.391Z,1.45
2018-09-27T14:38:21.743Z,1.40
2018-09-27T14:40:50.215Z,1.45
2018-09-27T14:43:19.290Z,1.60
2018-09-27T14:45:47.775Z,1.42
2018-09-27T14:48:16.190Z,1.60
2018-09-27T14:50:44.562Z,1.65
2018-09-27T14:53:13.122Z,1.65
2018-09-27T14:55:41.457Z,1.20
2018-09-27T14:58:09.804Z,1.58
2018-09-27T15:00:38.160Z,1.58
2018-09-27T15:03:06.601Z,1.58
2018-09-27T15:05:34.948Z,1.40
2018-09-27T15:08:03.452Z,1.42
2018-09-27T15:10:31.761Z,1.55
2018-09-27T15:13:00.852Z,1.75
2018-09-27T15:15:29.246Z,1.40
2018-09-27T15:17:57.703Z,1.40
2018-09-27T15:20:26.004Z,1.70
2018-09-27T15:22:54.371Z,1.48
2018-09-27T15:25:22.836Z,1.60
2018-09-27T15:27:51.184Z,1.42
2018-09-27T15:30:19.592Z,1.10
2018-09-27T15:32:47.991Z,1.42
2018-09-27T15:35:16.404Z,1.90
2018-09-27T15:37:44.761Z,1.48
2018-09-27T15:40:13.161Z,1.27
2018-09-27T15:42:41.746Z,1.25
2018-09-27T15:45:10.114Z,1.30
2018-09-27T15:47:38.476Z,1.05
2018-09-27T15:50:07.057Z,1.10
2018-09-27T15:52:35.423Z,1.30
2018-09-27T15:55:04.569Z,1.20
2018-09-27T15:57:32.953Z,0.85
2018-09-27T16:00:01.370Z,1.23
2018-09-27T16:02:29.926Z,1.20
2018-09-27T16:04:58.296Z,1.15
2018-09-27T16:07:26.685Z,1.20
2018-09-27T16:09:55.146Z,1.20
2018-09-27T16:12:23.640Z,1.20
2018-09-27T16:14:52.945Z,1.40
2018-09-27T16:17:22.446Z,1.73
2018-09-27T16:19:50.799Z,1.62
2018-09-27T16:22:19.311Z,1.67
2018-09-27T16:24:47.758Z,1.50
2018-09-27T16:27:16.197Z,1.25
2018-09-27T16:29:44.572Z,1.40
2018-09-27T16:32:12.918Z,1.65
2018-09-27T16:34:41.295Z,1.42
2018-09-27T16:37:09.848Z,1.75
2018-09-27T16:39:38.236Z,1.90
2018-09-27T16:42:06.634Z,1.60
2018-09-27T16:44:35.105Z,1.37
2018-09-27T16:47:03.433Z,1.70
2018-09-27T16:49:31.810Z,1.40
2018-09-27T16:52:00.312Z,1.33
2018-09-27T16:54:32.197Z,1.23
2018-09-27T16:57:00.527Z,1.80
2018-09-27T16:59:29.050Z,1.33
2018-09-27T17:01:57.395Z,1.52
2018-09-27T17:04:25.845Z,1.75
2018-09-27T17:06:54.340Z,1.48
2018-09-27T17:09:22.816Z,1.30
2018-09-27T17:11:51.277Z,1.42
2018-09-27T17:14:19.631Z,1.52
2018-09-27T17:16:47.952Z,1.70
2018-09-27T17:19:16.311Z,1.90
2018-09-27T17:21:44.745Z,1.90
2018-09-27T17:24:13.372Z,2.25
2018-09-27T17:26:41.719Z,1.62
2018-09-27T17:29:10.073Z,2.10
2018-09-27T17:31:38.524Z,2.10
2018-09-27T17:34:06.771Z,2.40
2018-09-27T17:36:35.274Z,2.40
2018-09-27T17:39:03.631Z,2.00
2018-09-27T17:41:32.003Z,2.22
2018-09-27T17:44:01.130Z,3.20
2018-09-27T17:46:29.658Z,3.05
2018-09-27T17:48:57.941Z,2.78
2018-09-27T17:51:26.271Z,2.97
2018-09-27T17:53:54.647Z,2.90
2018-09-27T17:56:23.005Z,3.07
2018-09-27T17:58:51.444Z,4.05
2018-09-27T18:01:20.588Z,4.83
2018-09-27T18:03:48.923Z,4.47
2018-09-27T18:06:17.353Z,4.17
2018-09-27T18:08:45.697Z,4.20
2018-09-27T18:11:14.147Z,3.93
2018-09-27T18:13:42.517Z,3.87
2018-09-27T18:16:10.876Z,4.67
2018-09-27T18:18:39.199Z,4.37
2018-09-27T18:21:07.562Z,4.10
2018-09-27T18:23:36.184Z,5.03
2018-09-27T18:26:04.542Z,4.10
2018-09-27T18:28:37.837Z,4.00
2018-09-27T18:31:06.295Z,2.90
2018-09-27T18:33:34.766Z,2.40
2018-09-27T18:36:03.231Z,2.67
2018-09-27T18:38:31.639Z,2.70
2018-09-27T18:40:59.987Z,2.23
2018-09-27T18:43:28.348Z,2.80
2018-09-27T18:45:56.838Z,2.43
2018-09-27T18:48:25.175Z,3.60
2018-09-27T18:50:53.579Z,3.03
2018-09-27T18:53:22.835Z,3.03
2018-09-27T18:55:51.228Z,3.13
2018-09-27T18:58:19.548Z,3.10
2018-09-27T19:00:48.692Z,3.50
2018-09-27T19:03:17.007Z,4.10
2018-09-27T19:05:45.449Z,5.93
2018-09-27T19:08:13.827Z,4.77
2018-09-27T19:10:42.386Z,3.87
2018-09-27T19:13:10.724Z,3.50
2018-09-27T19:15:39.358Z,3.83
2018-09-27T19:18:07.830Z,4.03
2018-09-27T19:20:36.199Z,3.57
2018-09-27T19:23:04.537Z,3.57
2018-09-27T19:25:32.890Z,3.60
2018-09-27T19:28:01.345Z,9.27
2018-09-27T19:30:29.691Z,7.40
2018-09-27T19:32:58.042Z,5.20
2018-09-27T19:35:26.371Z,4.07
2018-09-27T19:37:54.726Z,3.77
2018-09-27T19:40:23.076Z,3.30
2018-09-27T19:42:51.407Z,3.40
2018-09-27T19:45:19.992Z,3.77
2018-09-27T19:47:48.413Z,3.10
2018-09-27T19:50:16.756Z,3.40
2018-09-27T19:52:45.118Z,9.77
2018-09-27T19:55:14.231Z,9.17
2018-09-27T19:57:42.764Z,5.30
2018-09-27T20:00:11.929Z,3.60
2018-09-27T20:02:40.321Z,3.77
2018-09-27T20:05:09.415Z,3.57
2018-09-27T20:07:37.867Z,3.30
2018-09-27T20:10:06.256Z,3.40
2018-09-27T20:12:34.692Z,3.00
2018-09-27T20:15:04.133Z,3.17
2018-09-27T20:17:32.437Z,2.43
2018-09-27T20:20:00.775Z,2.70
2018-09-27T20:22:29.989Z,3.07
2018-09-27T20:24:59.104Z,2.63
2018-09-27T20:27:27.420Z,2.53
2018-09-27T20:29:55.992Z,2.77
2018-09-27T20:32:24.349Z,3.37
2018-09-27T20:34:52.812Z,3.10
2018-09-27T20:37:21.163Z,3.00
2018-09-27T20:39:49.486Z,2.87
2018-09-27T20:42:17.836Z,3.30
2018-09-27T20:44:46.182Z,3.07
2018-09-27T20:47:14.704Z,2.80
2018-09-27T20:49:43.838Z,3.40
2018-09-27T20:52:12.355Z,3.00
2018-09-27T20:54:40.694Z,3.07
2018-09-27T20:57:09.030Z,3.70
2018-09-27T20:59:38.227Z,3.20
2018-09-27T21:02:07.376Z,4.67
2018-09-27T21:04:35.729Z,4.63
2018-09-27T21:07:04.307Z,4.07
2018-09-27T21:09:33.031Z,3.93
2018-09-27T21:12:01.541Z,3.70
2018-09-27T21:14:30.732Z,3.53
2018-09-27T21:16:59.207Z,3.70
2018-09-27T21:19:27.545Z,3.93
2018-09-27T21:21:56.609Z,3.50
2018-09-27T21:24:25.727Z,3.80
2018-09-27T21:26:55.032Z,3.70
2018-09-27T21:29:23.362Z,3.27
2018-09-27T21:31:51.739Z,3.63
2018-09-27T21:34:20.087Z,3.37
2018-09-27T21:36:48.403Z,3.90
2018-09-27T21:39:16.784Z,3.60
2018-09-27T21:41:45.159Z,3.83
2018-09-27T21:44:13.595Z,3.87
2018-09-27T21:46:41.978Z,3.70
2018-09-27T21:49:10.305Z,3.70
2018-09-27T21:51:38.632Z,3.60
2018-09-27T21:54:07.012Z,4.13
2018-09-27T21:56:35.432Z,3.30
2018-09-27T21:59:03.817Z,3.57
2018-09-27T22:01:32.208Z,4.00
2018-09-27T22:04:01.488Z,3.57
2018-09-27T22:06:29.834Z,3.50
2018-09-27T22:08:58.238Z,3.63
2018-09-27T22:11:26.673Z,4.13
2018-09-27T22:13:55.011Z,4.13
2018-09-27T22:16:23.421Z,3.80
2018-09-27T22:18:52.731Z,4.03
2018-09-27T22:21:21.828Z,4.10
2018-09-27T22:23:50.181Z,4.10
2018-09-27T22:26:18.577Z,3.70
2018-09-27T22:28:47.773Z,4.07
2018-09-27T22:31:16.851Z,4.30
2018-09-27T22:33:45.291Z,3.63
2018-09-27T22:36:13.654Z,4.23
2018-09-27T22:38:41.972Z,4.33
2018-09-27T22:41:11.061Z,3.97
2018-09-27T22:43:39.403Z,4.20
2018-09-27T22:46:07.745Z,4.00
2018-09-27T22:48:36.077Z,4.67
2018-09-27T22:51:04.395Z,3.73
2018-09-27T22:53:32.739Z,3.83
2018-09-27T22:56:01.105Z,3.93
2018-09-27T22:58:29.502Z,3.73
2018-09-27T23:00:57.825Z,4.40
2018-09-27T23:03:26.937Z,4.17
2018-09-27T23:05:55.279Z,5.03
2018-09-27T23:08:23.641Z,4.93
2018-09-27T23:10:51.983Z,4.20
2018-09-27T23:13:20.331Z,4.40
2018-09-27T23:15:49.454Z,4.27
2018-09-27T23:18:17.789Z,4.70
2018-09-27T23:20:46.243Z,4.33
2018-09-27T23:23:14.567Z,5.00
2018-09-27T23:25:42.987Z,4.97
2018-09-27T23:28:11.489Z,5.13
2018-09-27T23:30:39.830Z,5.57
2018-09-27T23:33:08.161Z,4.93
2018-09-27T23:35:36.604Z,5.03
2018-09-27T23:38:04.997Z,5.57
2018-09-27T23:40:33.352Z,5.17
2018-09-27T23:43:01.686Z,5.40
2018-09-27T23:45:30.133Z,5.57
2018-09-27T23:47:58.484Z,6.03
2018-09-27T23:50:26.874Z,5.53
2018-09-27T23:52:55.214Z,5.33
2018-09-27T23:55:23.546Z,6.00
2018-09-27T23:57:51.982Z,5.97
